Prosper, North Dakota
Current Conditions -  °F | °C
As of 6:53 PM on Sunday 21 Dec 2014 (Local Time) from KFAR Reporting Station
Haze Haze  
Wind Chill: 26°   Ceiling: 700
Heat Index: 35°   Visibility: 5mi
Dew Point: 31°   Wind: 15mph
Humidity: 85%   Direction: 150°SSE
Pressure: 29.57"   Gusts: NA
Location:  47.0192°N, 96.9474°W
Report Text: KFAR 220053Z 15013KT 5SM BR OVC007 02/M01 A2957 RMK AO2 SLP024 T00171006
Loading
Personal Weather Stations






























Interactive Weather Map New forecast layout! Learn more

10-Day Weather Forecast

Advertisements
Track Severe Weather on mobile